Time;durP1;ratioP1;P1;durP2;ratioP2;P2;SDS_P1;SDS_P2;PMS_P1;PMS_P2;Temp;Humidity;BMP_temperature;BMP_pressure;BME280_temperature;BME280_humidity;BME280_pressure;Samples;Min_cycle;Max_cycle;Signal;HPM_P1;HPM_P2
2022/09/03 00:01:50;;;;;;;5.38;4.97;;;;;;;17.20;100.00;96303.78;5154609;27;20212;-53
2022/09/03 00:04:24;;;;;;;5.85;5.00;;;;;;;17.20;100.00;96293.91;5154158;27;20739;-54
2022/09/03 00:06:58;;;;;;;5.80;5.25;;;;;;;17.26;100.00;96311.00;5154248;27;20288;-54
2022/09/03 00:09:27;;;;;;;6.15;5.53;;;;;;;17.31;100.00;96308.59;5153841;27;20252;-52
2022/09/03 00:12:03;;;;;;;5.80;5.40;;;;;;;17.29;100.00;96302.59;5153850;27;20211;-53
2022/09/03 00:14:36;;;;;;;5.00;4.65;;;;;;;17.32;100.00;96302.25;5153728;27;20211;-52
2022/09/03 00:17:05;;;;;;;5.10;4.80;;;;;;;17.35;100.00;96301.84;5153525;27;20280;-53
2022/09/03 00:19:36;;;;;;;5.90;5.15;;;;;;;17.36;100.00;96292.78;5153664;27;20663;-51
2022/09/03 00:22:08;;;;;;;5.35;4.95;;;;;;;17.39;100.00;96311.16;5154127;27;20319;-51
2022/09/03 00:24:36;;;;;;;6.38;5.85;;;;;;;17.45;100.00;96334.41;5153792;27;20200;-51
2022/09/03 00:27:11;;;;;;;5.70;5.30;;;;;;;17.49;100.00;96341.03;5154080;27;20208;-53
2022/09/03 00:29:41;;;;;;;6.30;5.90;;;;;;;17.54;100.00;96354.63;5153241;27;20286;-52
2022/09/03 00:32:13;;;;;;;7.18;6.57;;;;;;;17.59;100.00;96357.59;5153488;27;20231;-52
2022/09/03 00:34:42;;;;;;;6.40;5.90;;;;;;;17.63;100.00;96369.56;5151361;27;20192;-54
2022/09/03 00:37:10;;;;;;;7.30;6.60;;;;;;;17.67;100.00;96365.50;5153604;27;20298;-52
2022/09/03 00:39:37;;;;;;;7.30;6.65;;;;;;;17.71;100.00;96364.06;5141668;27;20218;-53
2022/09/03 00:42:20;;;;;;;7.93;6.63;;;;;;;17.70;100.00;96358.91;5152585;27;20514;-51
2022/09/03 00:44:59;;;;;;;7.35;6.72;;;;;;;17.66;100.00;96358.47;5152956;27;20199;-51
2022/09/03 00:47:30;;;;;;;7.07;6.55;;;;;;;17.66;100.00;96355.81;5152763;27;20232;-52
2022/09/03 00:50:08;;;;;;;7.20;6.60;;;;;;;17.65;100.00;96356.81;5153255;27;20275;-52
2022/09/03 00:52:44;;;;;;;6.05;5.63;;;;;;;17.66;100.00;96346.97;5152620;27;20203;-53
2022/09/03 00:55:19;;;;;;;6.05;5.65;;;;;;;17.64;100.00;96344.47;5153177;27;20195;-51
2022/09/03 00:57:57;;;;;;;6.13;5.50;;;;;;;17.64;100.00;96341.78;5153205;27;20655;-53
2022/09/03 01:00:25;;;;;;;5.78;5.35;;;;;;;17.62;100.00;96335.81;5152656;27;20340;-52
2022/09/03 01:03:01;;;;;;;5.93;5.45;;;;;;;17.60;100.00;96316.47;5153253;27;20200;-53
2022/09/03 01:05:38;;;;;;;5.97;5.57;;;;;;;17.60;100.00;96327.19;5153359;27;20203;-53
2022/09/03 01:08:14;;;;;;;5.80;5.30;;;;;;;17.54;100.00;96321.72;5153027;27;20220;-52
2022/09/03 01:10:48;;;;;;;6.00;5.50;;;;;;;17.51;100.00;96312.25;5152512;27;20207;-52
2022/09/03 01:13:21;;;;;;;6.05;5.50;;;;;;;17.43;100.00;96312.38;5152614;27;20726;-49
2022/09/03 01:15:56;;;;;;;5.63;5.13;;;;;;;17.35;100.00;96307.19;5152678;27;20206;-52
2022/09/03 01:18:28;;;;;;;5.32;4.93;;;;;;;17.35;100.00;96309.88;5151800;27;20191;-51
2022/09/03 01:21:02;;;;;;;6.15;5.70;;;;;;;17.35;100.00;96323.25;5152896;27;20188;-53
2022/09/03 01:23:42;;;;;;;6.00;5.40;;;;;;;17.33;100.00;96317.25;5153122;27;20259;-52
2022/09/03 01:26:30;;;;;;;6.10;5.60;;;;;;;17.28;100.00;96315.16;5152502;27;20220;-51
2022/09/03 01:29:05;;;;;;;6.60;6.03;;;;;;;17.28;100.00;96317.00;5151795;27;20609;-53
2022/09/03 01:31:37;;;;;;;6.60;6.07;;;;;;;17.27;100.00;96299.31;5140598;27;20269;-53
2022/09/03 01:34:11;;;;;;;6.22;5.60;;;;;;;17.26;100.00;96303.00;5152542;27;20220;-53
2022/09/03 01:36:43;;;;;;;5.95;5.47;;;;;;;17.26;100.00;96305.66;5165738;27;20190;-52
2022/09/03 01:39:14;;;;;;;5.57;5.18;;;;;;;17.23;100.00;96303.38;5171655;27;20231;-52
2022/09/03 01:44:43;;;;;;;6.10;5.45;;;;;;;17.13;100.00;96305.56;5140685;27;20265;-53
2022/09/03 01:47:32;;;;;;;6.35;5.80;;;;;;;17.08;100.00;96297.28;5151707;27;20253;-54
2022/09/03 01:50:03;;;;;;;6.53;5.28;;;;;;;17.01;100.00;96291.03;5152446;27;20195;-52
2022/09/03 01:52:40;;;;;;;4.38;4.13;;;;;;;16.97;100.00;96295.16;5152474;27;20280;-50
2022/09/03 01:55:19;;;;;;;4.00;3.70;;;;;;;16.89;100.00;96306.78;5152251;27;20284;-50
2022/09/03 01:57:48;;;;;;;3.90;3.60;;;;;;;16.89;100.00;96302.25;5152150;27;20230;-52
2022/09/03 02:00:19;;;;;;;4.28;3.70;;;;;;;16.83;100.00;96297.66;5151695;27;20249;-51
2022/09/03 02:02:47;;;;;;;3.85;3.65;;;;;;;16.84;100.00;96304.66;5151409;27;20206;-52
2022/09/03 02:05:16;;;;;;;4.45;4.05;;;;;;;16.82;100.00;96314.72;5151643;27;20192;-53
2022/09/03 02:07:45;;;;;;;3.55;3.35;;;;;;;16.83;100.00;96315.53;5151895;27;20291;-53
2022/09/03 02:10:13;;;;;;;4.10;3.10;;;;;;;16.78;100.00;96315.28;5151978;27;20199;-53
2022/09/03 02:12:42;;;;;;;2.90;2.70;;;;;;;16.75;100.00;96319.16;5169790;27;20223;-53
2022/09/03 02:15:12;;;;;;;2.78;2.58;;;;;;;16.72;100.00;96316.84;5175096;27;20259;-53
2022/09/03 02:17:41;;;;;;;2.58;2.45;;;;;;;16.69;100.00;96311.91;5171638;27;20218;-55
2022/09/03 02:20:10;;;;;;;2.95;2.75;;;;;;;16.64;100.00;96308.97;5163742;27;20199;-53
2022/09/03 02:22:38;;;;;;;2.75;2.55;;;;;;;16.59;100.00;96307.88;5151272;27;20190;-52
2022/09/03 02:25:05;;;;;;;3.33;2.50;;;;;;;16.65;100.00;96318.63;5151818;27;20290;-54
2022/09/03 02:27:32;;;;;;;2.90;2.70;;;;;;;16.59;100.00;96327.38;5151181;27;20246;-54
2022/09/03 02:29:59;;;;;;;3.10;2.90;;;;;;;16.48;100.00;96338.53;5151396;27;20913;-53
2022/09/03 02:32:26;;;;;;;2.92;2.67;;;;;;;16.44;100.00;96340.72;5151597;27;20266;-53
2022/09/03 02:34:54;;;;;;;3.03;2.75;;;;;;;16.48;100.00;96332.34;5151637;27;20203;-55
2022/09/03 02:37:22;;;;;;;3.17;2.97;;;;;;;16.45;100.00;96338.91;5151864;27;20215;-52
2022/09/03 02:39:50;;;;;;;2.70;2.50;;;;;;;16.43;100.00;96349.78;5151341;27;20222;-54
2022/09/03 02:42:19;;;;;;;2.30;2.20;;;;;;;16.44;100.00;96355.91;5151545;27;20230;-54
2022/09/03 02:44:48;;;;;;;2.15;2.05;;;;;;;16.40;100.00;96357.31;5167898;27;20283;-55
2022/09/03 02:47:15;;;;;;;2.60;2.40;;;;;;;16.37;100.00;96352.34;5170536;27;20266;-53
2022/09/03 02:49:42;;;;;;;2.40;2.30;;;;;;;16.33;100.00;96348.41;5173665;27;20191;-53
2022/09/03 02:52:11;;;;;;;3.00;2.28;;;;;;;16.27;100.00;96346.47;5169175;27;20303;-56
2022/09/03 02:54:38;;;;;;;2.80;2.50;;;;;;;16.28;100.00;96356.97;5165792;27;20192;-54
2022/09/03 02:57:07;;;;;;;2.40;2.30;;;;;;;16.34;100.00;96355.38;5150762;27;20196;-53
2022/09/03 02:59:34;;;;;;;3.20;2.30;;;;;;;16.35;100.00;96362.38;5157880;27;20298;-54
2022/09/03 03:02:01;;;;;;;2.50;2.30;;;;;;;16.34;100.00;96363.38;5168047;27;20250;-54
2022/09/03 03:04:28;;;;;;;3.22;2.33;;;;;;;16.28;100.00;96362.28;5156826;27;20211;-52
2022/09/03 03:06:55;;;;;;;2.53;2.33;;;;;;;16.22;100.00;96365.72;5155753;27;20620;-54
2022/09/03 03:09:23;;;;;;;2.60;2.40;;;;;;;16.24;100.00;96376.19;5155885;27;20707;-54
2022/09/03 03:11:54;;;;;;;2.38;2.28;;;;;;;16.21;100.00;96368.56;5155037;27;20232;-57
2022/09/03 03:14:21;;;;;;;2.30;2.20;;;;;;;16.19;100.00;96373.25;5154433;27;20200;-56
2022/09/03 03:16:47;;;;;;;2.13;2.03;;;;;;;16.19;100.00;96373.25;5155394;27;20199;-56
2022/09/03 03:19:14;;;;;;;2.10;2.00;;;;;;;16.20;100.00;96380.22;5155003;27;20299;-57
2022/09/03 03:21:41;;;;;;;2.50;2.40;;;;;;;16.21;100.00;96376.56;5155017;27;20227;-55
2022/09/03 03:24:09;;;;;;;2.70;2.50;;;;;;;16.22;100.00;96383.56;5154871;27;20291;-56
2022/09/03 03:26:37;;;;;;;2.85;2.65;;;;;;;16.26;100.00;96384.84;5154979;27;20238;-52
2022/09/03 03:29:04;;;;;;;2.72;2.22;;;;;;;16.29;100.00;96384.47;5151461;27;20315;-54
2022/09/03 03:31:32;;;;;;;2.17;2.08;;;;;;;16.33;100.00;96391.09;5154878;27;20192;-55
2022/09/03 03:34:00;;;;;;;2.45;2.35;;;;;;;16.33;100.00;96396.44;5154215;27;20251;-56
2022/09/03 03:36:30;;;;;;;2.20;2.10;;;;;;;16.32;100.00;96392.94;5154837;27;20290;-50
2022/09/03 03:38:58;;;;;;;2.60;2.40;;;;;;;16.35;100.00;96397.06;5154323;27;20275;-51
2022/09/03 03:41:30;;;;;;;2.20;2.10;;;;;;;16.33;100.00;96393.78;5154535;27;20238;-52
2022/09/03 03:43:59;;;;;;;2.53;2.42;;;;;;;16.33;100.00;96407.91;5153965;27;20644;-52
2022/09/03 03:46:29;;;;;;;2.42;2.22;;;;;;;16.34;100.00;96400.75;5154276;27;20275;-52
2022/09/03 03:48:56;;;;;;;2.78;2.58;;;;;;;16.35;100.00;96402.41;5172143;27;20211;-54
2022/09/03 03:51:22;;;;;;;2.40;2.30;;;;;;;16.32;100.00;96408.13;5179217;27;20192;-52
2022/09/03 03:53:49;;;;;;;2.42;2.33;;;;;;;16.29;100.00;96406.66;5170755;27;20212;-51
2022/09/03 03:56:16;;;;;;;2.47;2.38;;;;;;;16.29;100.00;96408.50;5154498;27;20242;-51
2022/09/03 03:58:44;;;;;;;2.58;2.38;;;;;;;16.28;100.00;96404.16;5154503;27;20230;-51
2022/09/03 04:01:14;;;;;;;2.70;2.50;;;;;;;16.24;100.00;96400.19;5154822;27;20203;-50
2022/09/03 04:03:42;;;;;;;2.60;2.40;;;;;;;16.21;100.00;96403.25;5153417;27;20687;-50
2022/09/03 04:06:12;;;;;;;3.17;2.97;;;;;;;16.20;100.00;96402.41;5154664;27;20231;-50
2022/09/03 04:08:40;;;;;;;2.58;2.45;;;;;;;16.22;100.00;96402.22;5154258;27;20284;-51
2022/09/03 04:11:09;;;;;;;3.00;2.70;;;;;;;16.21;100.00;96403.25;5154354;27;20597;-51
2022/09/03 04:13:37;;;;;;;2.88;2.60;;;;;;;16.25;100.00;96401.88;5153990;27;20235;-51
2022/09/03 04:16:05;;;;;;;2.72;2.53;;;;;;;16.22;100.00;96395.06;5154636;27;20311;-51
2022/09/03 04:18:34;;;;;;;2.95;2.80;;;;;;;16.21;100.00;96401.41;5154057;27;20548;-51
2022/09/03 04:21:03;;;;;;;3.10;2.90;;;;;;;16.19;100.00;96394.59;5154498;27;20187;-50
2022/09/03 04:23:30;;;;;;;3.20;2.92;;;;;;;16.19;100.00;96390.06;5155018;27;20200;-51
2022/09/03 04:25:56;;;;;;;3.00;2.80;;;;;;;16.19;100.00;96379.41;5153970;27;20603;-51
2022/09/03 04:28:23;;;;;;;2.90;2.80;;;;;;;16.20;100.00;96380.22;5153696;27;20686;-51
2022/09/03 04:30:49;;;;;;;3.13;2.83;;;;;;;16.19;100.00;96383.94;5154230;27;20298;-51
2022/09/03 04:33:16;;;;;;;2.95;2.78;;;;;;;16.19;100.00;96375.94;5154192;27;20319;-52
2022/09/03 04:35:44;;;;;;;2.97;2.80;;;;;;;16.17;100.00;96381.44;5153768;27;20204;-50
2022/09/03 04:38:14;;;;;;;3.25;3.05;;;;;;;16.16;100.00;96384.28;5154051;27;20306;-51
2022/09/03 04:40:41;;;;;;;3.75;2.60;;;;;;;16.19;100.00;96381.25;5153683;27;20227;-51
2022/09/03 04:43:08;;;;;;;2.55;2.35;;;;;;;16.24;100.00;96393.03;5153618;27;20192;-52
2022/09/03 04:45:34;;;;;;;3.00;2.80;;;;;;;16.29;100.00;96384.47;5153115;27;20797;-52
2022/09/03 04:48:02;;;;;;;2.83;2.70;;;;;;;16.28;100.00;96374.81;5153171;27;20304;-52
2022/09/03 04:50:30;;;;;;;3.10;2.90;;;;;;;16.31;100.00;96371.75;5153776;27;20227;-50
2022/09/03 04:53:00;;;;;;;3.08;2.65;;;;;;;16.31;100.00;96382.44;5141061;27;20303;-52
2022/09/03 04:55:26;;;;;;;2.95;2.75;;;;;;;16.33;100.00;96383.91;5153112;27;20196;-52
2022/09/03 04:57:53;;;;;;;2.65;2.55;;;;;;;16.35;100.00;96383.72;5153545;27;20230;-51
2022/09/03 05:00:20;;;;;;;2.35;2.20;;;;;;;16.34;100.00;96382.06;5153958;27;20279;-50
2022/09/03 05:02:48;;;;;;;2.65;2.45;;;;;;;16.31;100.00;96383.28;5153499;27;20207;-51
2022/09/03 05:05:15;;;;;;;2.67;2.47;;;;;;;16.32;100.00;96384.94;5152120;27;20693;-52
2022/09/03 05:07:43;;;;;;;2.33;2.22;;;;;;;16.33;100.00;96385.78;5153590;27;20283;-53
2022/09/03 05:10:15;;;;;;;2.38;2.17;;;;;;;16.35;100.00;96389.06;5151676;27;20214;-51
2022/09/03 05:12:42;;;;;;;2.40;2.30;;;;;;;16.35;100.00;96394.41;5153183;27;20192;-51
2022/09/03 05:15:09;;;;;;;2.13;2.03;;;;;;;16.36;100.00;96386.22;5153299;27;20188;-51
2022/09/03 05:17:38;;;;;;;2.45;2.30;;;;;;;16.35;100.00;96383.72;5153152;27;20227;-52
2022/09/03 05:20:06;;;;;;;2.63;2.42;;;;;;;16.37;100.00;96387.03;5153229;27;20211;-53
2022/09/03 05:22:34;;;;;;;2.45;2.35;;;;;;;16.37;100.00;96397.69;5153351;27;20239;-51
2022/09/03 05:25:00;;;;;;;2.05;1.95;;;;;;;16.36;100.00;96391.56;5153217;27;20283;-52
2022/09/03 05:27:28;;;;;;;2.17;2.08;;;;;;;16.34;100.00;96390.91;5154170;27;20260;-51
2022/09/03 05:29:55;;;;;;;2.47;2.23;;;;;;;16.33;100.00;96381.22;5154419;27;20739;-51
2022/09/03 05:32:24;;;;;;;2.20;2.10;;;;;;;16.33;100.00;96375.91;5156863;27;20291;-52
2022/09/03 05:34:50;;;;;;;2.30;2.20;;;;;;;16.38;100.00;96383.34;5164536;27;20237;-53
2022/09/03 05:37:17;;;;;;;2.38;2.28;;;;;;;16.37;100.00;96381.69;5176535;27;20199;-51
2022/09/03 05:39:44;;;;;;;2.60;2.50;;;;;;;16.36;100.00;96380.06;5179017;27;20184;-53
2022/09/03 05:42:12;;;;;;;2.70;2.60;;;;;;;16.34;100.00;96374.06;5172624;27;20175;-51
2022/09/03 05:44:40;;;;;;;3.20;2.88;;;;;;;16.33;100.00;96373.22;5180139;27;20184;-50
2022/09/03 05:47:07;;;;;;;2.92;2.72;;;;;;;16.36;100.00;96370.22;5178808;27;20234;-51
2022/09/03 05:49:33;;;;;;;3.73;2.30;;;;;;;16.34;100.00;96369.56;5174860;27;20188;-51
2022/09/03 05:52:00;;;;;;;2.53;2.40;;;;;;;16.34;100.00;96369.56;5177500;27;20195;-52
2022/09/03 05:54:27;;;;;;;8.50;2.42;;;;;;;16.31;100.00;96367.25;5179453;27;20219;-52
2022/09/03 05:56:54;;;;;;;2.38;2.20;;;;;;;16.32;100.00;96365.44;5179836;27;20226;-52
2022/09/03 05:59:20;;;;;;;2.70;2.50;;;;;;;16.34;100.00;96363.38;5174381;27;20211;-51
2022/09/03 06:01:49;;;;;;;3.85;2.78;;;;;;;16.35;100.00;96346.38;5172892;27;20195;-51
2022/09/03 06:04:16;;;;;;;2.63;2.45;;;;;;;16.34;100.00;96339.38;5166977;27;20608;-51
2022/09/03 06:06:44;;;;;;;2.42;2.30;;;;;;;16.36;100.00;96330.19;5165677;27;20200;-52
2022/09/03 06:09:13;;;;;;;3.78;2.50;;;;;;;16.36;100.00;96327.50;5155312;27;20585;-52
2022/09/03 06:11:41;;;;;;;2.90;2.80;;;;;;;16.38;100.00;96340.66;5150471;27;20283;-51
2022/09/03 06:14:10;;;;;;;2.50;2.40;;;;;;;16.44;100.00;96359.41;5151249;27;20216;-51
2022/09/03 06:16:39;;;;;;;2.40;2.30;;;;;;;16.48;100.00;96351.88;5151434;27;20260;-51
2022/09/03 06:19:08;;;;;;;2.90;2.70;;;;;;;16.50;100.00;96355.19;5151692;27;20278;-50
2022/09/03 06:21:41;;;;;;;2.70;2.50;;;;;;;16.51;100.00;96348.81;5151411;27;20195;-52
2022/09/03 06:24:09;;;;;;;2.58;2.38;;;;;;;16.53;100.00;96354.81;5151868;27;20200;-52
2022/09/03 06:26:35;;;;;;;2.60;2.50;;;;;;;16.54;100.00;96351.13;5151305;27;20231;-51
2022/09/03 06:29:02;;;;;;;2.40;2.30;;;;;;;16.53;100.00;96352.16;5151329;27;20279;-51
2022/09/03 06:31:30;;;;;;;2.85;2.65;;;;;;;16.49;100.00;96332.16;5150883;27;20557;-50
2022/09/03 06:33:57;;;;;;;2.63;2.53;;;;;;;16.54;100.00;96334.28;5153197;27;20718;-52
2022/09/03 06:36:27;;;;;;;2.30;2.20;;;;;;;16.77;100.00;96338.50;5155557;27;20567;-50
2022/09/03 06:38:56;;;;;;;4.07;2.83;;;;;;;17.08;100.00;96327.50;5156055;27;20211;-51
2022/09/03 06:41:24;;;;;;;2.80;2.53;;;;;;;17.37;100.00;96339.91;5155779;27;20291;-51
2022/09/03 06:43:52;;;;;;;2.90;2.70;;;;;;;17.71;100.00;96334.63;5156262;27;20199;-51
2022/09/03 06:46:20;;;;;;;2.63;2.47;;;;;;;18.29;100.00;96337.88;5154994;27;20648;-51
2022/09/03 06:48:49;;;;;;;3.60;2.47;;;;;;;18.26;100.00;96338.28;5155349;27;20254;-51
2022/09/03 06:51:17;;;;;;;2.50;2.40;;;;;;;18.21;100.00;96333.53;5155887;27;20642;-50
2022/09/03 06:53:47;;;;;;;2.22;2.10;;;;;;;18.24;100.00;96329.66;5155602;27;20267;-52
2022/09/03 06:56:15;;;;;;;2.47;2.35;;;;;;;18.42;100.00;96328.06;5155314;27;20246;-51
2022/09/03 06:58:44;;;;;;;4.03;2.20;;;;;;;18.64;100.00;96320.78;5155191;27;20282;-51
2022/09/03 07:01:12;;;;;;;3.08;2.80;;;;;;;18.56;100.00;96329.00;5155383;27;20310;-51
2022/09/03 07:03:41;;;;;;;2.70;2.60;;;;;;;18.60;100.00;96329.44;5155864;27;20562;-50
2022/09/03 07:06:09;;;;;;;2.58;2.47;;;;;;;18.66;100.00;96324.09;5155318;27;20227;-50
2022/09/03 07:08:36;;;;;;;2.50;2.40;;;;;;;18.75;100.00;96328.22;5155040;27;20478;-51
2022/09/03 07:11:07;;;;;;;2.85;2.70;;;;;;;19.33;100.00;96326.72;5154828;27;20254;-51
2022/09/03 07:13:34;;;;;;;3.13;2.55;;;;;;;19.64;100.00;96322.59;5155692;27;20215;-51
2022/09/03 07:16:03;;;;;;;3.00;2.80;;;;;;;20.10;100.00;96325.22;5154995;27;20208;-52
2022/09/03 07:18:30;;;;;;;2.88;2.75;;;;;;;20.47;100.00;96324.56;5154827;27;20242;-51
2022/09/03 07:21:00;;;;;;;2.85;2.65;;;;;;;20.79;98.81;96318.22;5155025;27;20311;-51
2022/09/03 07:23:28;;;;;;;2.78;2.58;;;;;;;21.00;93.72;96316.22;5155522;27;20199;-51
2022/09/03 07:25:55;;;;;;;2.50;2.30;;;;;;;21.23;95.10;96313.81;5155514;27;20235;-50
2022/09/03 07:28:24;;;;;;;2.45;2.35;;;;;;;21.32;89.14;96310.69;5155752;27;20200;-52
2022/09/03 07:30:50;;;;;;;2.33;2.15;;;;;;;21.43;89.76;96309.16;5154368;27;20204;-50
2022/09/03 07:33:17;;;;;;;2.67;2.55;;;;;;;21.61;87.69;96311.06;5154385;27;21367;-52
2022/09/03 07:35:44;;;;;;;2.55;2.45;;;;;;;21.74;88.91;96319.84;5154411;27;20215;-50
2022/09/03 07:38:12;;;;;;;2.15;2.05;;;;;;;21.76;88.42;96320.44;5155082;27;20278;-52
2022/09/03 07:40:39;;;;;;;2.53;2.40;;;;;;;21.79;89.17;96314.63;5154771;27;20528;-51
2022/09/03 07:43:06;;;;;;;2.47;2.33;;;;;;;21.75;87.96;96318.78;5154306;27;20196;-50
2022/09/03 07:45:34;;;;;;;2.20;2.10;;;;;;;21.63;85.57;96323.25;5153811;27;20238;-51
2022/09/03 07:48:00;;;;;;;2.50;2.30;;;;;;;21.73;87.23;96320.88;5153874;27;20219;-49
2022/09/03 07:50:29;;;;;;;2.78;2.40;;;;;;;21.86;82.15;96313.75;5154175;27;20204;-50
2022/09/03 07:52:57;;;;;;;2.33;2.22;;;;;;;22.00;82.80;96316.09;5154557;27;20202;-52
2022/09/03 07:55:24;;;;;;;3.45;2.92;;;;;;;22.13;84.49;96315.16;5153393;27;20227;-51
2022/09/03 07:57:55;;;;;;;2.15;1.98;;;;;;;22.27;86.38;96319.38;5154263;27;20226;-51
2022/09/03 08:00:23;;;;;;;2.22;2.13;;;;;;;22.36;83.87;96326.09;5154267;27;20238;-50
2022/09/03 08:02:53;;;;;;;2.00;1.90;;;;;;;22.26;83.60;96320.41;5154252;27;20594;-51
2022/09/03 08:05:20;;;;;;;2.13;2.03;;;;;;;22.15;85.45;96321.13;5154031;27;20196;-52
2022/09/03 08:07:48;;;;;;;1.92;1.80;;;;;;;21.86;81.26;96327.22;5153962;27;20227;-52
2022/09/03 08:10:15;;;;;;;1.85;1.75;;;;;;;21.60;82.33;96323.69;5154635;27;20548;-52
2022/09/03 08:12:43;;;;;;;2.70;2.25;;;;;;;21.43;84.43;96325.28;5166034;27;20196;-52
2022/09/03 08:15:10;;;;;;;2.53;2.30;;;;;;;21.32;83.78;96331.38;5174817;27;20234;-53
2022/09/03 08:17:37;;;;;;;3.00;2.10;;;;;;;21.35;87.88;96322.84;5162812;27;20240;-51
2022/09/03 08:20:07;;;;;;;2.47;2.05;;;;;;;21.63;86.02;96317.88;5156127;27;20679;-52
2022/09/03 08:22:33;;;;;;;2.47;2.38;;;;;;;21.82;87.25;96324.94;5153741;27;20509;-51
2022/09/03 08:25:00;;;;;;;2.30;2.20;;;;;;;22.04;85.06;96327.25;5153575;27;20644;-50
2022/09/03 08:27:27;;;;;;;2.22;2.13;;;;;;;22.25;84.64;96329.53;5153219;27;20204;-51
2022/09/03 08:29:54;;;;;;;2.35;2.15;;;;;;;22.36;84.98;96336.88;5153904;27;20214;-52
2022/09/03 08:32:21;;;;;;;2.38;2.25;;;;;;;22.42;82.58;96351.34;5153549;27;20303;-50
2022/09/03 08:34:49;;;;;;;2.75;2.55;;;;;;;22.47;82.38;96355.00;5154571;27;20287;-51
2022/09/03 08:37:17;;;;;;;2.70;2.50;;;;;;;22.59;81.44;96358.59;5154324;27;20188;-50
2022/09/03 08:39:44;;;;;;;2.25;2.15;;;;;;;22.79;80.35;96364.59;5153832;27;20298;-52
2022/09/03 08:42:25;;;;;;;3.53;2.30;;;;;;;22.94;80.88;96372.31;5153654;27;20646;-50
2022/09/03 08:44:55;;;;;;;2.67;2.35;;;;;;;23.21;80.03;96365.50;5153354;27;20610;-52
2022/09/03 08:47:25;;;;;;;2.13;2.03;;;;;;;23.42;77.04;96364.19;5152685;27;20235;-52
2022/09/03 08:49:55;;;;;;;2.22;2.10;;;;;;;23.35;74.50;96362.63;5153247;27;20292;-51
2022/09/03 08:52:31;;;;;;;2.63;2.42;;;;;;;23.33;77.29;96372.81;5153086;27;20219;-51
2022/09/03 08:55:04;;;;;;;2.28;2.10;;;;;;;23.58;76.27;96379.75;5152815;27;20208;-51
2022/09/03 08:57:33;;;;;;;2.67;2.30;;;;;;;23.42;75.91;96379.59;5152641;27;20276;-52
2022/09/03 08:59:59;;;;;;;1.83;1.83;;;;;;;23.76;77.43;96385.06;5152204;27;20199;-50
2022/09/03 09:02:32;;;;;;;2.40;2.30;;;;;;;23.74;72.36;96383.63;5153300;27;20199;-53
2022/09/03 09:05:03;;;;;;;2.80;2.45;;;;;;;23.61;75.28;96400.88;5152658;27;20192;-51
2022/09/03 09:07:37;;;;;;;5.22;4.72;;;;;;;23.51;75.24;96411.41;5152948;27;20268;-51
2022/09/03 09:10:11;;;;;;;2.70;2.50;;;;;;;22.98;80.43;96426.63;5152894;27;20196;-52
2022/09/03 09:12:43;;;;;;;2.60;2.05;;;;;;;22.77;78.20;96423.34;5152617;27;20283;-52
2022/09/03 09:15:14;;;;;;;4.80;4.40;;;;;;;22.36;85.94;96412.31;5153039;27;20294;-51
2022/09/03 09:17:51;;;;;;;2.40;2.30;;;;;;;22.18;82.70;96410.41;5152436;27;20283;-51
2022/09/03 09:20:21;;;;;;;2.28;2.15;;;;;;;21.87;88.27;96412.31;5152657;27;20219;-53
2022/09/03 09:22:52;;;;;;;2.50;2.40;;;;;;;21.95;84.05;96428.22;5153321;27;20299;-50
2022/09/03 09:25:21;;;;;;;2.45;2.35;;;;;;;21.78;84.97;96442.19;5172809;27;20168;-52
2022/09/03 09:27:52;;;;;;;2.58;2.10;;;;;;;21.50;89.64;96457.91;5178054;27;20192;-51
2022/09/03 09:30:19;;;;;;;2.33;2.22;;;;;;;21.31;87.84;96467.72;5178708;27;20160;-52
2022/09/03 09:32:46;;;;;;;2.33;2.13;;;;;;;21.09;94.10;96463.63;5168313;27;21352;-50
2022/09/03 09:35:14;;;;;;;2.45;2.30;;;;;;;20.91;88.43;96476.09;5152445;27;20219;-52
2022/09/03 09:37:53;;;;;;;2.45;2.28;;;;;;;20.73;86.94;96485.66;5152280;27;20235;-51
2022/09/03 09:40:31;;;;;;;2.42;2.13;;;;;;;20.47;92.92;96485.72;5155680;27;20219;-51
2022/09/03 09:43:09;;;;;;;3.20;2.47;;;;;;;20.34;95.27;96489.22;5166284;27;20199;-51
2022/09/03 09:45:39;;;;;;;2.17;2.08;;;;;;;20.22;95.75;96492.72;5152101;27;20187;-51
2022/09/03 09:48:17;;;;;;;2.25;2.05;;;;;;;20.10;95.40;96494.38;5153311;27;20698;-51
2022/09/03 09:50:44;;;;;;;2.17;2.08;;;;;;;20.10;97.75;96499.72;5153266;27;20252;-52
2022/09/03 09:53:16;;;;;;;2.97;2.17;;;;;;;20.02;100.00;96505.28;5153142;27;20286;-51
2022/09/03 09:55:53;;;;;;;2.22;1.95;;;;;;;19.92;100.00;96499.50;5158813;27;20215;-51
2022/09/03 09:58:22;;;;;;;2.10;2.00;;;;;;;19.89;98.16;96522.22;5172398;27;20184;-51
2022/09/03 10:00:57;;;;;;;2.00;1.90;;;;;;;19.72;95.41;96518.28;5176068;27;20200;-51
2022/09/03 10:03:26;;;;;;;2.20;2.00;;;;;;;19.71;93.37;96517.44;5168989;27;20219;-51
2022/09/03 10:06:52;;;;;;;2.00;1.90;;;;;;;19.63;93.87;96504.19;5173046;27;20214;-51
2022/09/03 10:08:50;;;;;;;2.45;2.25;;;;;;;19.52;95.48;96507.47;5153297;27;20199;-49
2022/09/03 10:11:18;;;;;;;3.70;2.00;;;;;;;19.64;93.55;96529.19;5151665;27;20204;-51
2022/09/03 10:13:47;;;;;;;4.22;2.20;;;;;;;19.52;96.93;96534.28;5151907;27;20310;-49
2022/09/03 10:16:21;;;;;;;1.92;1.83;;;;;;;19.58;95.45;96530.00;5151632;27;20227;-49
2022/09/03 10:18:53;;;;;;;2.00;1.90;;;;;;;19.57;94.54;96521.13;5152264;27;20227;-49
2022/09/03 10:21:26;;;;;;;2.22;1.75;;;;;;;19.45;97.42;96532.63;5151485;27;20278;-49
2022/09/03 10:23:58;;;;;;;2.22;2.03;;;;;;;19.45;95.76;96522.72;5155601;27;20234;-54
2022/09/03 10:26:28;;;;;;;2.00;1.90;;;;;;;19.53;98.58;96514.50;5173285;27;20180;-50
2022/09/03 10:28:57;;;;;;;2.15;2.00;;;;;;;19.48;98.60;96500.88;5174055;27;20263;-51
2022/09/03 10:31:39;;;;;;;1.65;1.55;;;;;;;19.52;99.78;96502.09;5167160;27;20259;-50
2022/09/03 10:34:10;;;;;;;1.63;1.52;;;;;;;19.51;100.00;96511.19;5156858;27;20236;-50
2022/09/03 10:36:40;;;;;;;1.85;1.75;;;;;;;19.45;100.00;96513.88;5152447;27;20235;-51
2022/09/03 10:39:14;;;;;;;1.90;1.80;;;;;;;19.39;99.51;96527.00;5151695;27;20223;-50
2022/09/03 10:41:54;;;;;;;1.80;1.70;;;;;;;19.27;100.00;96535.84;5152304;27;20214;-50
2022/09/03 10:44:41;;;;;;;2.63;1.73;;;;;;;19.10;100.00;96529.13;5151936;27;20191;-48
2022/09/03 10:47:18;;;;;;;1.60;1.50;;;;;;;18.97;100.00;96524.53;5151672;27;20239;-49
2022/09/03 10:49:50;;;;;;;1.90;1.67;;;;;;;18.95;100.00;96525.78;5152058;27;20195;-53
2022/09/03 10:52:27;;;;;;;1.83;1.73;;;;;;;18.89;100.00;96522.00;5151155;27;20219;-52
2022/09/03 10:55:14;;;;;;;2.10;1.80;;;;;;;18.81;97.33;96520.31;5152218;27;20211;-55
2022/09/03 10:57:46;;;;;;;1.80;1.70;;;;;;;18.73;100.00;96528.53;5151942;27;20204;-52
2022/09/03 11:00:15;;;;;;;2.13;2.03;;;;;;;18.79;100.00;96533.09;5151727;27;20199;-51
2022/09/03 11:03:15;;;;;;;1.98;1.77;;;;;;;18.86;100.00;96530.44;5152753;27;20212;-52
2022/09/03 11:05:54;;;;;;;2.00;1.90;;;;;;;18.85;100.00;96529.63;5152883;27;20220;-53
2022/09/03 11:08:27;;;;;;;1.83;1.73;;;;;;;18.86;100.00;96533.97;5150256;27;20219;-57
2022/09/03 11:10:57;;;;;;;2.15;1.95;;;;;;;18.87;100.00;96524.91;5152101;27;20627;-58
2022/09/03 11:13:27;;;;;;;1.98;1.88;;;;;;;18.93;100.00;96520.59;5150784;27;20227;-58
2022/09/03 11:15:56;;;;;;;2.25;2.03;;;;;;;18.97;100.00;96518.34;5150405;27;20239;-56
2022/09/03 11:18:26;;;;;;;2.40;2.30;;;;;;;18.99;100.00;96516.31;5151315;27;20369;-52
2022/09/03 11:21:00;;;;;;;2.25;2.13;;;;;;;18.86;100.00;96504.50;5155259;27;20279;-57
2022/09/03 11:23:30;;;;;;;2.80;1.95;;;;;;;18.90;100.00;96491.53;5156899;27;20664;-54
2022/09/03 11:26:01;;;;;;;1.90;1.80;;;;;;;18.94;100.00;96482.06;5157769;27;20212;-56
2022/09/03 11:28:41;;;;;;;2.10;2.00;;;;;;;19.05;100.00;96481.50;5154921;27;20272;-53
2022/09/03 11:31:19;;;;;;;2.38;2.20;;;;;;;19.19;100.00;96466.28;5157612;27;20264;-52
2022/09/03 11:33:49;;;;;;;1.92;1.77;;;;;;;19.36;100.00;96492.56;5156745;27;20287;-54
2022/09/03 11:36:23;;;;;;;2.95;1.80;;;;;;;19.96;100.00;96492.69;5157038;27;20319;-52
2022/09/03 11:38:50;;;;;;;2.17;2.08;;;;;;;20.29;100.00;96481.00;5157332;27;20196;-53
2022/09/03 11:41:26;;;;;;;2.10;1.85;;;;;;;20.42;99.79;96477.44;5155658;27;20292;-54
2022/09/03 11:43:53;;;;;;;2.10;1.92;;;;;;;20.54;100.00;96481.16;5155872;27;20219;-53